createdAt,value
2018-09-07T00:00:07.785Z,989.3
2018-09-07T00:01:08.460Z,989.3
2018-09-07T00:02:09.136Z,989.3
2018-09-07T00:03:09.812Z,989.3
2018-09-07T00:04:10.533Z,989.3
2018-09-07T00:05:11.210Z,989.3
2018-09-07T00:06:11.886Z,989.3
2018-09-07T00:07:12.561Z,989.3
2018-09-07T00:08:13.238Z,989.3
2018-09-07T00:09:13.914Z,989.3
2018-09-07T00:10:14.590Z,989.3
2018-09-07T00:11:15.266Z,989.3
2018-09-07T00:12:15.940Z,989.3
2018-09-07T00:13:16.618Z,989.3
2018-09-07T00:14:17.294Z,989.3
2018-09-07T00:15:17.970Z,989.3
2018-09-07T00:16:18.703Z,989.3
2018-09-07T00:17:19.379Z,989.3
2018-09-07T00:18:20.055Z,989.3
2018-09-07T00:19:20.777Z,989.2
2018-09-07T00:20:21.452Z,989.3
2018-09-07T00:21:22.128Z,989.2
2018-09-07T00:22:22.806Z,989.3
2018-09-07T00:23:23.480Z,989.2
2018-09-07T00:24:24.157Z,989.2
2018-09-07T00:25:24.832Z,989.2
2018-09-07T00:26:25.508Z,989.3
2018-09-07T00:27:26.183Z,989.3
2018-09-07T00:28:26.863Z,989.3
2018-09-07T00:29:27.535Z,989.3
2018-09-07T00:30:28.240Z,989.2
2018-09-07T00:31:28.885Z,989.3
2018-09-07T00:32:29.562Z,989.3
2018-09-07T00:33:30.237Z,989.3
2018-09-07T00:34:30.915Z,989.4
2018-09-07T00:35:31.590Z,989.3
2018-09-07T00:36:32.265Z,989.4
2018-09-07T00:37:32.943Z,989.4
2018-09-07T00:38:33.617Z,989.4
2018-09-07T00:39:34.294Z,989.4
2018-09-07T00:40:34.968Z,989.4
2018-09-07T00:41:35.646Z,989.4
2018-09-07T00:42:36.324Z,989.4
2018-09-07T00:43:36.995Z,989.4
2018-09-07T00:44:37.670Z,989.4
2018-09-07T00:45:38.346Z,989.5
2018-09-07T00:46:39.023Z,989.4
2018-09-07T00:47:39.697Z,989.4
2018-09-07T00:48:40.373Z,989.5
2018-09-07T00:49:41.047Z,989.4
2018-09-07T00:50:41.724Z,989.4
2018-09-07T00:51:42.403Z,989.4
2018-09-07T00:52:43.080Z,989.4
2018-09-07T00:53:43.750Z,989.4
2018-09-07T00:54:44.426Z,989.4
2018-09-07T00:55:45.103Z,989.4
2018-09-07T00:56:45.779Z,989.4
2018-09-07T00:57:46.455Z,989.4
2018-09-07T00:58:47.130Z,989.3
2018-09-07T00:59:47.811Z,989.3
2018-09-07T01:00:48.484Z,989.4
2018-09-07T01:01:49.159Z,989.3
2018-09-07T01:02:49.837Z,989.4
2018-09-07T01:03:50.511Z,989.3
2018-09-07T01:04:51.186Z,989.4
2018-09-07T01:05:51.862Z,989.4
2018-09-07T01:06:52.543Z,989.4
2018-09-07T01:07:53.215Z,989.4
2018-09-07T01:08:53.889Z,989.4
2018-09-07T01:09:54.564Z,989.5
2018-09-07T01:10:55.240Z,989.5
2018-09-07T01:11:55.915Z,989.5
2018-09-07T01:12:56.591Z,989.5
2018-09-07T01:13:57.266Z,989.5
2018-09-07T01:14:57.941Z,989.5
2018-09-07T01:15:58.616Z,989.5
2018-09-07T01:16:59.293Z,989.5
2018-09-07T01:17:59.968Z,989.5
2018-09-07T01:19:00.644Z,989.5
2018-09-07T01:20:01.319Z,989.6
2018-09-07T01:21:01.994Z,989.6
2018-09-07T01:22:02.671Z,989.6
2018-09-07T01:23:03.350Z,989.5
2018-09-07T01:24:04.022Z,989.6
2018-09-07T01:25:04.696Z,989.6
2018-09-07T01:26:05.417Z,989.6
2018-09-07T01:27:06.093Z,989.6
2018-09-07T01:28:06.768Z,989.6
2018-09-07T01:29:07.479Z,989.6
2018-09-07T01:30:08.154Z,989.6
2018-09-07T01:31:08.874Z,989.6
2018-09-07T01:32:09.549Z,989.6
2018-09-07T01:33:10.227Z,989.6
2018-09-07T01:34:10.900Z,989.6
2018-09-07T01:35:11.577Z,989.6
2018-09-07T01:36:12.252Z,989.6
2018-09-07T01:37:12.928Z,989.6
2018-09-07T01:38:13.603Z,989.6
2018-09-07T01:39:14.277Z,989.6
2018-09-07T01:40:14.953Z,989.6
2018-09-07T01:41:15.630Z,989.6
2018-09-07T01:42:16.304Z,989.6
2018-09-07T01:43:17.022Z,989.7
2018-09-07T01:44:17.699Z,989.6
2018-09-07T01:45:18.375Z,989.6
2018-09-07T01:46:19.103Z,989.6
2018-09-07T01:47:19.780Z,989.6
2018-09-07T01:48:20.453Z,989.6
2018-09-07T01:49:21.171Z,989.6
2018-09-07T01:50:21.846Z,989.5
2018-09-07T01:51:22.522Z,989.5
2018-09-07T01:52:23.198Z,989.4
2018-09-07T01:53:23.873Z,989.4
2018-09-07T01:54:24.551Z,989.5
2018-09-07T01:55:25.225Z,989.5
2018-09-07T01:56:25.901Z,989.4
2018-09-07T01:57:26.578Z,989.4
2018-09-07T01:58:27.295Z,989.4
2018-09-07T01:59:27.969Z,989.4
2018-09-07T02:00:28.647Z,989.4
2018-09-07T02:01:29.323Z,989.4
2018-09-07T02:02:29.999Z,989.4
2018-09-07T02:03:30.675Z,989.4
2018-09-07T02:04:31.393Z,989.5
2018-09-07T02:05:32.070Z,989.5
2018-09-07T02:06:32.745Z,989.5
2018-09-07T02:07:33.420Z,989.5
2018-09-07T02:08:34.097Z,989.5
2018-09-07T02:09:34.772Z,989.5
2018-09-07T02:10:35.449Z,989.5
2018-09-07T02:11:36.124Z,989.5
2018-09-07T02:12:36.798Z,989.5
2018-09-07T02:13:37.475Z,989.5
2018-09-07T02:14:38.149Z,989.5
2018-09-07T02:15:38.824Z,989.4
2018-09-07T02:16:39.570Z,989.4
2018-09-07T02:17:40.211Z,989.4
2018-09-07T02:18:40.889Z,989.4
2018-09-07T02:19:41.562Z,989.4
2018-09-07T02:20:42.241Z,989.4
2018-09-07T02:21:42.957Z,989.4
2018-09-07T02:22:43.635Z,989.5
2018-09-07T02:23:44.308Z,989.5
2018-09-07T02:24:44.984Z,989.6
2018-09-07T02:25:45.659Z,989.6
2018-09-07T02:26:46.382Z,989.6
2018-09-07T02:27:47.055Z,989.6
2018-09-07T02:28:47.731Z,989.6
2018-09-07T02:29:48.406Z,989.6
2018-09-07T02:30:49.080Z,989.6
2018-09-07T02:31:49.757Z,989.6
2018-09-07T02:32:50.434Z,989.6
2018-09-07T02:33:51.110Z,989.7
2018-09-07T02:34:51.782Z,989.6
2018-09-07T02:35:52.457Z,989.7
2018-09-07T02:36:53.132Z,989.7
2018-09-07T02:37:53.811Z,989.7
2018-09-07T02:38:54.481Z,989.7
2018-09-07T02:39:55.157Z,989.7
2018-09-07T02:40:55.834Z,989.7
2018-09-07T02:41:56.508Z,989.7
2018-09-07T02:42:57.184Z,989.7
2018-09-07T02:43:57.858Z,989.7
2018-09-07T02:44:58.580Z,989.8
2018-09-07T02:45:59.254Z,989.8
2018-09-07T02:46:59.929Z,989.8
2018-09-07T02:48:00.604Z,989.8
2018-09-07T02:49:01.299Z,989.8
2018-09-07T02:50:01.956Z,989.8
2018-09-07T02:51:02.630Z,989.8
2018-09-07T02:52:03.309Z,989.8
2018-09-07T02:53:03.981Z,989.8
2018-09-07T02:54:04.657Z,989.8
2018-09-07T02:55:05.332Z,989.8
2018-09-07T02:56:06.008Z,989.8
2018-09-07T02:57:06.684Z,989.8
2018-09-07T02:58:07.358Z,989.8
2018-09-07T02:59:08.034Z,989.8
2018-09-07T03:00:08.710Z,989.8
2018-09-07T03:01:09.385Z,989.8
2018-09-07T03:02:10.060Z,989.8
2018-09-07T03:03:10.738Z,989.8
2018-09-07T03:04:11.411Z,989.7
2018-09-07T03:05:12.089Z,989.8
2018-09-07T03:06:12.762Z,989.8
2018-09-07T03:07:13.440Z,989.8
2018-09-07T03:08:14.118Z,989.8
2018-09-07T03:09:14.791Z,989.8
2018-09-07T03:10:15.465Z,989.8
2018-09-07T03:11:16.141Z,989.8
2018-09-07T03:12:16.818Z,989.8
2018-09-07T03:13:17.537Z,989.8
2018-09-07T03:14:18.212Z,989.8
2018-09-07T03:15:18.885Z,989.8
2018-09-07T03:16:19.563Z,989.8
2018-09-07T03:17:20.241Z,989.8
2018-09-07T03:18:20.913Z,989.8
2018-09-07T03:19:21.589Z,989.8
2018-09-07T03:20:22.266Z,989.8
2018-09-07T03:21:22.991Z,989.8
2018-09-07T03:22:23.709Z,989.8
2018-09-07T03:23:24.471Z,989.8
2018-09-07T03:24:25.062Z,989.8
2018-09-07T03:25:25.737Z,989.8
2018-09-07T03:26:26.413Z,989.7
2018-09-07T03:27:27.087Z,989.8
2018-09-07T03:28:27.763Z,989.7
2018-09-07T03:29:28.438Z,989.7
2018-09-07T03:30:29.114Z,989.7
2018-09-07T03:31:29.792Z,989.7
2018-09-07T03:32:30.510Z,989.7
2018-09-07T03:33:31.186Z,989.7
2018-09-07T03:34:31.861Z,989.7
2018-09-07T03:35:32.535Z,989.7
2018-09-07T03:36:33.214Z,989.7
2018-09-07T03:37:33.888Z,989.7
2018-09-07T03:38:34.564Z,989.7
2018-09-07T03:39:35.238Z,989.7
2018-09-07T03:40:35.915Z,989.7
2018-09-07T03:41:36.590Z,989.7
2018-09-07T03:42:37.276Z,989.7
2018-09-07T03:43:37.942Z,989.8
2018-09-07T03:44:38.654Z,989.8
2018-09-07T03:45:39.293Z,989.8
2018-09-07T03:46:39.967Z,989.8
2018-09-07T03:47:40.643Z,989.8
2018-09-07T03:48:41.319Z,989.8
2018-09-07T03:49:41.993Z,989.8
2018-09-07T03:50:42.737Z,989.8
2018-09-07T03:51:43.346Z,989.8
2018-09-07T03:52:44.022Z,989.8
2018-09-07T03:53:44.695Z,989.8
2018-09-07T03:54:45.421Z,989.8
2018-09-07T03:55:46.091Z,989.8
2018-09-07T03:56:46.776Z,989.8
2018-09-07T03:57:47.441Z,989.9
2018-09-07T03:58:48.119Z,989.9
2018-09-07T03:59:48.800Z,989.9
2018-09-07T04:00:49.513Z,989.9
2018-09-07T04:01:50.189Z,989.9
2018-09-07T04:02:50.909Z,990.0
2018-09-07T04:03:51.585Z,989.9
2018-09-07T04:04:52.304Z,989.9
2018-09-07T04:05:52.979Z,989.9
2018-09-07T04:06:53.655Z,990.0
2018-09-07T04:07:54.331Z,990.0
2018-09-07T04:08:55.008Z,990.0
2018-09-07T04:09:55.709Z,990.0
2018-09-07T04:10:56.402Z,989.9
2018-09-07T04:11:57.078Z,990.0
2018-09-07T04:12:57.754Z,990.0
2018-09-07T04:13:58.429Z,990.0
2018-09-07T04:14:59.116Z,990.0
2018-09-07T04:15:59.825Z,990.0
2018-09-07T04:17:00.500Z,990.0
2018-09-07T04:18:01.176Z,990.0
2018-09-07T04:19:01.903Z,990.0
2018-09-07T04:20:02.573Z,990.0
2018-09-07T04:21:03.248Z,990.0
2018-09-07T04:22:03.924Z,990.0
2018-09-07T04:23:04.605Z,990.0
2018-09-07T04:24:05.320Z,990.0
2018-09-07T04:25:05.995Z,990.0
2018-09-07T04:26:06.672Z,990.1
2018-09-07T04:27:07.345Z,990.1
2018-09-07T04:28:08.033Z,990.1
2018-09-07T04:29:08.697Z,990.1
2018-09-07T04:30:09.374Z,990.1
2018-09-07T04:31:10.048Z,990.2
2018-09-07T04:32:10.728Z,990.1
2018-09-07T04:33:11.404Z,990.2
2018-09-07T04:34:12.083Z,990.2
2018-09-07T04:35:12.799Z,990.2
2018-09-07T04:36:13.469Z,990.2
2018-09-07T04:37:14.147Z,990.2
2018-09-07T04:38:14.823Z,990.2
2018-09-07T04:39:15.500Z,990.2
2018-09-07T04:40:16.178Z,990.2
2018-09-07T04:41:16.964Z,990.2
2018-09-07T04:42:17.530Z,990.2
2018-09-07T04:43:18.252Z,990.2
2018-09-07T04:44:18.928Z,990.2
2018-09-07T04:45:19.606Z,990.2
2018-09-07T04:46:20.284Z,990.2
2018-09-07T04:47:20.960Z,990.2
2018-09-07T04:48:21.657Z,990.2
2018-09-07T04:49:22.315Z,990.2
2018-09-07T04:50:22.992Z,990.2
2018-09-07T04:51:23.667Z,990.2
2018-09-07T04:52:24.345Z,990.2
2018-09-07T04:53:25.023Z,990.3
2018-09-07T04:54:25.699Z,990.3
2018-09-07T04:55:26.377Z,990.3
2018-09-07T04:56:27.056Z,990.3
2018-09-07T04:57:27.775Z,990.3
2018-09-07T04:58:28.411Z,990.3
2018-09-07T04:59:29.090Z,990.3
2018-09-07T05:00:29.767Z,990.3
2018-09-07T05:01:30.483Z,990.3
2018-09-07T05:02:31.168Z,990.3
2018-09-07T05:03:31.866Z,990.4
2018-09-07T05:04:32.575Z,990.4
2018-09-07T05:05:33.252Z,990.3
2018-09-07T05:06:33.930Z,990.4
2018-09-07T05:07:34.608Z,990.4
2018-09-07T05:08:35.335Z,990.5
2018-09-07T05:09:36.012Z,990.5
2018-09-07T05:10:36.691Z,990.5
2018-09-07T05:11:37.367Z,990.5
2018-09-07T05:12:38.052Z,990.5
2018-09-07T05:13:38.771Z,990.5
2018-09-07T05:14:39.446Z,990.5
2018-09-07T05:15:40.125Z,990.5
2018-09-07T05:16:40.804Z,990.5
2018-09-07T05:17:41.483Z,990.6
2018-09-07T05:18:42.204Z,990.6
2018-09-07T05:19:42.921Z,990.5
2018-09-07T05:20:43.607Z,990.6
2018-09-07T05:21:44.286Z,990.6
2018-09-07T05:22:44.966Z,990.6
2018-09-07T05:23:45.645Z,990.6
2018-09-07T05:24:46.323Z,990.7
2018-09-07T05:25:47.004Z,990.6
2018-09-07T05:26:47.681Z,990.6
2018-09-07T05:27:48.359Z,990.6
2018-09-07T05:28:49.041Z,990.6
2018-09-07T05:29:49.717Z,990.6
2018-09-07T05:30:50.396Z,990.6
2018-09-07T05:31:51.078Z,990.6
2018-09-07T05:32:51.800Z,990.6
2018-09-07T05:33:52.477Z,990.7
2018-09-07T05:34:53.156Z,990.7
2018-09-07T05:35:53.836Z,990.7
2018-09-07T05:36:54.515Z,990.7
2018-09-07T05:37:55.193Z,990.7
2018-09-07T05:38:55.875Z,990.7
2018-09-07T05:39:56.553Z,990.7
2018-09-07T05:40:57.231Z,990.7
2018-09-07T05:41:57.909Z,990.8
2018-09-07T05:42:58.638Z,990.7
2018-09-07T05:43:59.316Z,990.7
2018-09-07T05:44:59.997Z,990.8
2018-09-07T05:46:00.675Z,990.8
2018-09-07T05:47:01.353Z,990.8
2018-09-07T05:48:02.035Z,990.8
2018-09-07T05:49:02.712Z,990.8
2018-09-07T05:50:03.391Z,990.8
2018-09-07T05:51:04.070Z,990.9
2018-09-07T05:52:04.750Z,990.9
2018-09-07T05:53:05.430Z,990.8
2018-09-07T05:54:06.122Z,990.9
2018-09-07T05:55:06.833Z,990.9
2018-09-07T05:56:07.512Z,990.9
2018-09-07T05:57:08.191Z,990.9
2018-09-07T05:58:08.871Z,990.9
2018-09-07T05:59:09.551Z,990.9
2018-09-07T06:00:10.228Z,990.9
2018-09-07T06:01:10.909Z,990.9
2018-09-07T06:02:11.588Z,990.9
2018-09-07T06:03:12.267Z,991.0
2018-09-07T06:04:12.947Z,991.0
2018-09-07T06:05:13.669Z,991.0
2018-09-07T06:06:14.350Z,991.0
2018-09-07T06:07:15.031Z,991.0
2018-09-07T06:08:15.712Z,991.0
2018-09-07T06:09:16.392Z,991.0
2018-09-07T06:10:17.077Z,991.0
2018-09-07T06:11:17.755Z,991.0
2018-09-07T06:12:18.445Z,991.0
2018-09-07T06:13:19.161Z,991.1
2018-09-07T06:14:19.858Z,991.1
2018-09-07T06:15:20.523Z,991.1
2018-09-07T06:16:21.210Z,991.1
2018-09-07T06:17:21.891Z,991.1
2018-09-07T06:18:22.612Z,991.1
2018-09-07T06:19:23.294Z,991.1
2018-09-07T06:20:23.975Z,991.1
2018-09-07T06:21:24.658Z,991.1
2018-09-07T06:22:25.339Z,991.1
2018-09-07T06:23:26.020Z,991.1
2018-09-07T06:24:26.705Z,991.1
2018-09-07T06:25:27.386Z,991.1
2018-09-07T06:26:28.066Z,991.1
2018-09-07T06:27:28.749Z,991.2
2018-09-07T06:28:29.430Z,991.2
2018-09-07T06:29:30.110Z,991.2
2018-09-07T06:30:30.792Z,991.3
2018-09-07T06:31:31.472Z,991.2
2018-09-07T06:32:32.155Z,991.2
2018-09-07T06:33:32.915Z,991.2
2018-09-07T06:34:33.518Z,991.2
2018-09-07T06:35:34.199Z,991.3
2018-09-07T06:36:34.881Z,991.3
2018-09-07T06:37:35.564Z,991.3
2018-09-07T06:38:36.309Z,991.3
2018-09-07T06:39:36.925Z,991.3
2018-09-07T06:40:37.605Z,991.3
2018-09-07T06:41:38.292Z,991.3
2018-09-07T06:42:38.967Z,991.3
2018-09-07T06:43:39.648Z,991.3
2018-09-07T06:44:40.328Z,991.3
2018-09-07T06:45:41.010Z,991.3
2018-09-07T06:46:41.691Z,991.3
2018-09-07T06:47:42.372Z,991.3
2018-09-07T06:48:43.053Z,991.3
2018-09-07T06:49:43.733Z,991.3
2018-09-07T06:50:44.412Z,991.3
2018-09-07T06:51:45.094Z,991.4
2018-09-07T06:52:45.774Z,991.3
2018-09-07T06:53:46.455Z,991.3
2018-09-07T06:54:47.137Z,991.3
2018-09-07T06:55:47.820Z,991.3
2018-09-07T06:56:48.500Z,991.3
2018-09-07T06:57:49.182Z,991.3
2018-09-07T06:58:49.864Z,991.3
2018-09-07T06:59:50.544Z,991.4
2018-09-07T07:00:51.228Z,991.4
2018-09-07T07:01:51.912Z,991.4
2018-09-07T07:02:52.625Z,991.3
2018-09-07T07:03:53.274Z,991.4
2018-09-07T07:04:53.955Z,991.4
2018-09-07T07:05:54.637Z,991.4
2018-09-07T07:06:55.317Z,991.4
2018-09-07T07:07:55.999Z,991.4
2018-09-07T07:08:56.679Z,991.4
2018-09-07T07:09:57.362Z,991.5
2018-09-07T07:10:58.043Z,991.5
2018-09-07T07:11:58.725Z,991.4
2018-09-07T07:12:59.407Z,991.5
2018-09-07T07:14:00.094Z,991.5
2018-09-07T07:15:00.772Z,991.5
2018-09-07T07:16:01.455Z,991.5
2018-09-07T07:17:02.138Z,991.5
2018-09-07T07:18:02.863Z,991.5
2018-09-07T07:19:03.546Z,991.5
2018-09-07T07:20:04.272Z,991.6
2018-09-07T07:21:04.954Z,991.6
2018-09-07T07:22:05.683Z,991.6
2018-09-07T07:23:06.423Z,991.6
2018-09-07T07:24:07.092Z,991.7
2018-09-07T07:25:07.774Z,991.8
2018-09-07T07:26:08.456Z,991.8
2018-09-07T07:27:09.145Z,991.8
2018-09-07T07:28:09.864Z,991.8
2018-09-07T07:29:10.560Z,991.8
2018-09-07T07:30:11.229Z,991.8
2018-09-07T07:31:11.910Z,991.8
2018-09-07T07:32:12.637Z,991.7
2018-09-07T07:33:13.321Z,991.8
2018-09-07T07:34:14.013Z,991.7
2018-09-07T07:35:14.689Z,991.7
2018-09-07T07:36:15.371Z,991.8
2018-09-07T07:37:16.110Z,991.8
2018-09-07T07:38:16.735Z,991.8
2018-09-07T07:39:17.419Z,991.8
2018-09-07T07:40:18.102Z,991.8
2018-09-07T07:41:18.822Z,991.8
2018-09-07T07:42:19.470Z,991.8
2018-09-07T07:43:20.151Z,991.8
2018-09-07T07:44:20.834Z,991.8
2018-09-07T07:45:21.518Z,991.9
2018-09-07T07:46:22.201Z,991.9
2018-09-07T07:47:22.884Z,991.9
2018-09-07T07:48:23.568Z,991.9
2018-09-07T07:49:24.252Z,991.9
2018-09-07T07:50:24.984Z,991.9
2018-09-07T07:51:25.665Z,991.9
2018-09-07T07:52:26.351Z,991.9
2018-09-07T07:53:27.041Z,991.9
2018-09-07T07:54:27.765Z,991.9
2018-09-07T07:55:28.449Z,991.9
2018-09-07T07:56:29.135Z,991.9
2018-09-07T07:57:29.818Z,991.9
2018-09-07T07:58:30.501Z,992.0
2018-09-07T07:59:31.185Z,991.9
2018-09-07T08:00:31.870Z,991.9
2018-09-07T08:01:32.554Z,991.9
2018-09-07T08:02:33.238Z,992.0
2018-09-07T08:03:33.924Z,992.0
2018-09-07T08:04:34.608Z,992.0
2018-09-07T08:05:35.367Z,992.0
2018-09-07T08:06:36.019Z,992.0
2018-09-07T08:07:36.704Z,992.0
2018-09-07T08:08:37.387Z,992.0
2018-09-07T08:09:38.069Z,992.0
2018-09-07T08:10:38.753Z,992.0
2018-09-07T08:11:39.434Z,992.0
2018-09-07T08:12:40.120Z,992.0
2018-09-07T08:13:40.801Z,992.0
2018-09-07T08:14:41.485Z,992.0
2018-09-07T08:15:42.220Z,992.1
2018-09-07T08:16:42.906Z,992.1
2018-09-07T08:17:43.589Z,992.0
2018-09-07T08:18:44.271Z,992.1
2018-09-07T08:19:44.957Z,992.0
2018-09-07T08:20:45.671Z,992.1
2018-09-07T08:21:46.324Z,992.1
2018-09-07T08:22:47.010Z,992.1
2018-09-07T08:23:47.718Z,992.1
2018-09-07T08:24:48.422Z,992.0
2018-09-07T08:25:49.111Z,992.1
2018-09-07T08:26:49.796Z,992.1
2018-09-07T08:27:50.477Z,992.1
2018-09-07T08:28:51.162Z,992.1
2018-09-07T08:29:51.846Z,992.0
2018-09-07T08:30:52.531Z,992.0
2018-09-07T08:31:53.220Z,992.0
2018-09-07T08:32:53.968Z,992.0
2018-09-07T08:33:54.629Z,992.1
2018-09-07T08:34:55.315Z,992.0
2018-09-07T08:35:56.000Z,992.0
2018-09-07T08:36:56.685Z,992.1
2018-09-07T08:37:57.371Z,992.1
2018-09-07T08:38:58.055Z,992.1
2018-09-07T08:39:58.741Z,992.1
2018-09-07T08:40:59.427Z,992.1
2018-09-07T08:42:00.112Z,992.1
2018-09-07T08:43:00.841Z,992.1
2018-09-07T08:44:01.526Z,992.1
2018-09-07T08:45:02.214Z,992.1
2018-09-07T08:46:02.896Z,992.1
2018-09-07T08:47:03.581Z,992.1
2018-09-07T08:48:04.267Z,992.2
2018-09-07T08:49:04.953Z,992.2
2018-09-07T08:50:05.638Z,992.2
2018-09-07T08:51:06.323Z,992.2
2018-09-07T08:52:07.007Z,992.2
2018-09-07T08:53:07.737Z,992.2
2018-09-07T08:54:08.423Z,992.2
2018-09-07T08:55:09.108Z,992.2
2018-09-07T08:56:09.792Z,992.2
2018-09-07T08:57:10.477Z,992.2
2018-09-07T08:58:11.162Z,992.2
2018-09-07T08:59:11.847Z,992.2
2018-09-07T09:00:12.597Z,992.2
2018-09-07T09:01:13.218Z,992.2
2018-09-07T09:02:13.908Z,992.2
2018-09-07T09:03:14.590Z,992.2
2018-09-07T09:04:15.277Z,992.2
2018-09-07T09:05:16.001Z,992.2
2018-09-07T09:06:16.687Z,992.3
2018-09-07T09:07:17.372Z,992.3
2018-09-07T09:08:18.058Z,992.3
2018-09-07T09:09:18.745Z,992.3
2018-09-07T09:10:19.433Z,992.3
2018-09-07T09:11:20.113Z,992.3
2018-09-07T09:12:20.799Z,992.3
2018-09-07T09:13:21.483Z,992.3
2018-09-07T09:14:22.168Z,992.3
2018-09-07T09:15:22.859Z,992.3
2018-09-07T09:16:23.537Z,992.2
2018-09-07T09:17:24.223Z,992.2
2018-09-07T09:18:24.911Z,992.2
2018-09-07T09:19:25.593Z,992.2
2018-09-07T09:20:26.281Z,992.2
2018-09-07T09:21:26.963Z,992.2
2018-09-07T09:22:27.648Z,992.2
2018-09-07T09:23:28.352Z,992.3
2018-09-07T09:24:29.157Z,992.3
2018-09-07T09:25:29.702Z,992.3
2018-09-07T09:26:30.386Z,992.3
2018-09-07T09:27:31.071Z,992.3
2018-09-07T09:28:31.755Z,992.3
2018-09-07T09:29:32.440Z,992.3
2018-09-07T09:30:33.125Z,992.3
2018-09-07T09:31:33.809Z,992.4
2018-09-07T09:32:34.495Z,992.4
2018-09-07T09:33:35.188Z,992.4
2018-09-07T09:34:35.912Z,992.3
2018-09-07T09:35:36.594Z,992.3
2018-09-07T09:36:37.279Z,992.3
2018-09-07T09:37:37.964Z,992.3
2018-09-07T09:38:38.650Z,992.3
2018-09-07T09:39:39.334Z,992.4
2018-09-07T09:40:40.018Z,992.4
2018-09-07T09:41:40.704Z,992.3
2018-09-07T09:42:41.389Z,992.3
2018-09-07T09:43:42.074Z,992.3
2018-09-07T09:44:42.759Z,992.3
2018-09-07T09:45:43.492Z,992.3
2018-09-07T09:46:44.175Z,992.3
2018-09-07T09:47:44.862Z,992.3
2018-09-07T09:48:45.545Z,992.3
2018-09-07T09:49:46.230Z,992.4
2018-09-07T09:50:46.916Z,992.3
2018-09-07T09:51:47.602Z,992.4
2018-09-07T09:52:48.347Z,992.3
2018-09-07T09:53:48.971Z,992.3
2018-09-07T09:54:49.655Z,992.3
2018-09-07T09:55:50.340Z,992.3
2018-09-07T09:56:51.136Z,992.3
2018-09-07T09:57:51.755Z,992.3
2018-09-07T09:58:52.441Z,992.3
2018-09-07T09:59:53.125Z,992.3
2018-09-07T10:00:53.810Z,992.3
2018-09-07T10:01:54.495Z,992.3
2018-09-07T10:02:55.179Z,992.4
2018-09-07T10:03:55.864Z,992.4
2018-09-07T10:04:56.551Z,992.4
2018-09-07T10:05:57.234Z,992.3
2018-09-07T10:06:57.919Z,992.4
2018-09-07T10:07:58.603Z,992.4
2018-09-07T10:08:59.288Z,992.3
2018-09-07T10:09:59.973Z,992.3
2018-09-07T10:11:00.658Z,992.3
2018-09-07T10:12:01.370Z,992.4
2018-09-07T10:13:02.030Z,992.3
2018-09-07T10:14:02.714Z,992.4
2018-09-07T10:15:03.429Z,992.3
2018-09-07T10:16:04.134Z,992.3
2018-09-07T10:17:04.858Z,992.3
2018-09-07T10:18:05.543Z,992.3
2018-09-07T10:19:06.297Z,992.3
2018-09-07T10:20:06.912Z,992.2
2018-09-07T10:21:07.597Z,992.3
2018-09-07T10:22:08.282Z,992.3
2018-09-07T10:23:08.966Z,992.2
2018-09-07T10:24:09.652Z,992.2
2018-09-07T10:25:10.339Z,992.2
2018-09-07T10:26:11.025Z,992.2
2018-09-07T10:27:11.761Z,992.2
2018-09-07T10:28:12.442Z,992.1
2018-09-07T10:29:13.128Z,992.2
2018-09-07T10:30:13.814Z,992.2
2018-09-07T10:31:14.498Z,992.3
2018-09-07T10:32:15.185Z,992.2
2018-09-07T10:33:15.913Z,992.2
2018-09-07T10:34:16.597Z,992.2
2018-09-07T10:35:17.282Z,992.2
2018-09-07T10:36:17.979Z,992.3
2018-09-07T10:37:18.699Z,992.3
2018-09-07T10:38:19.386Z,992.3
2018-09-07T10:39:20.148Z,992.2
2018-09-07T10:40:20.838Z,992.3
2018-09-07T10:41:21.523Z,992.3
2018-09-07T10:42:22.206Z,992.2
2018-09-07T10:43:22.891Z,992.3
2018-09-07T10:44:23.575Z,992.3
2018-09-07T10:45:24.260Z,992.3
2018-09-07T10:46:24.944Z,992.2
2018-09-07T10:47:25.628Z,992.3
2018-09-07T10:48:26.313Z,992.3
2018-09-07T10:49:26.997Z,992.2
2018-09-07T10:50:27.682Z,992.2
2018-09-07T10:51:28.366Z,992.1
2018-09-07T10:52:29.050Z,992.2
2018-09-07T10:53:29.735Z,992.2
2018-09-07T10:54:30.420Z,992.2
2018-09-07T10:55:31.153Z,992.2
2018-09-07T10:56:31.833Z,992.1
2018-09-07T10:57:32.519Z,992.1
2018-09-07T10:58:33.248Z,992.1
2018-09-07T10:59:34.076Z,992.1
2018-09-07T11:00:34.706Z,992.1
2018-09-07T11:01:35.380Z,992.1
2018-09-07T11:02:36.066Z,992.1
2018-09-07T11:03:36.750Z,992.1
2018-09-07T11:04:37.435Z,992.1
2018-09-07T11:05:38.120Z,992.1
2018-09-07T11:06:38.809Z,992.1
2018-09-07T11:07:39.494Z,992.1
2018-09-07T11:08:40.177Z,992.1
2018-09-07T11:09:40.863Z,992.1
2018-09-07T11:10:41.548Z,992.1
2018-09-07T11:11:42.232Z,992.1
2018-09-07T11:12:42.916Z,992.2
2018-09-07T11:13:43.645Z,992.1
2018-09-07T11:14:44.283Z,992.2
2018-09-07T11:15:45.003Z,992.1
2018-09-07T11:16:45.695Z,992.2
2018-09-07T11:17:46.378Z,992.2
2018-09-07T11:18:47.066Z,992.2
2018-09-07T11:19:47.747Z,992.1
2018-09-07T11:20:48.492Z,992.1
2018-09-07T11:21:49.116Z,992.2
2018-09-07T11:22:49.799Z,992.2
2018-09-07T11:23:50.482Z,992.2
2018-09-07T11:24:51.167Z,992.1
2018-09-07T11:25:51.851Z,992.1
2018-09-07T11:26:52.535Z,992.1
2018-09-07T11:27:53.219Z,992.1
2018-09-07T11:28:53.948Z,992.2
2018-09-07T11:29:54.635Z,992.2
2018-09-07T11:30:55.319Z,992.2
2018-09-07T11:31:55.999Z,992.2
2018-09-07T11:32:56.683Z,992.1
2018-09-07T11:33:57.402Z,992.2
2018-09-07T11:34:58.095Z,992.1
2018-09-07T11:35:58.778Z,992.1
2018-09-07T11:36:59.467Z,992.1
2018-09-07T11:38:00.214Z,992.1
2018-09-07T11:39:00.917Z,992.2
2018-09-07T11:40:01.601Z,992.1
2018-09-07T11:41:02.358Z,992.2
2018-09-07T11:42:03.023Z,992.2
2018-09-07T11:43:03.741Z,992.2
2018-09-07T11:44:04.426Z,992.2
2018-09-07T11:45:05.109Z,992.1
2018-09-07T11:46:05.792Z,992.2
2018-09-07T11:47:06.477Z,992.2
2018-09-07T11:48:07.161Z,992.2
2018-09-07T11:49:07.893Z,992.1
2018-09-07T11:50:08.529Z,992.2
2018-09-07T11:51:09.241Z,992.2
2018-09-07T11:52:09.942Z,992.1
2018-09-07T11:53:10.624Z,992.1
2018-09-07T11:54:11.308Z,992.1
2018-09-07T11:55:11.991Z,992.1
2018-09-07T11:56:12.676Z,992.1
2018-09-07T11:57:13.361Z,992.0
2018-09-07T11:58:14.182Z,992.1
2018-09-07T11:59:14.770Z,992.1
2018-09-07T12:00:15.454Z,992.1
2018-09-07T12:01:16.137Z,992.1
2018-09-07T12:02:16.892Z,992.1
2018-09-07T12:03:17.504Z,992.1
2018-09-07T12:04:18.202Z,992.0
2018-09-07T12:05:18.871Z,992.0
2018-09-07T12:06:19.555Z,992.0
2018-09-07T12:07:20.239Z,992.0
2018-09-07T12:08:20.923Z,992.0
2018-09-07T12:09:21.607Z,991.9
2018-09-07T12:10:22.290Z,992.0
2018-09-07T12:11:22.975Z,991.9
2018-09-07T12:12:23.740Z,991.9
2018-09-07T12:13:24.532Z,991.9
2018-09-07T12:14:25.026Z,991.9
2018-09-07T12:15:25.710Z,991.9
2018-09-07T12:16:26.395Z,991.9
2018-09-07T12:17:27.139Z,991.9
2018-09-07T12:18:27.804Z,991.9
2018-09-07T12:19:28.489Z,991.9
2018-09-07T12:20:29.171Z,992.0
2018-09-07T12:21:29.855Z,991.9
2018-09-07T12:22:30.582Z,991.8
2018-09-07T12:23:31.371Z,991.8
2018-09-07T12:24:31.987Z,991.8
2018-09-07T12:25:32.674Z,991.8
2018-09-07T12:26:33.357Z,991.8
2018-09-07T12:27:34.042Z,991.8
2018-09-07T12:28:34.726Z,991.8
2018-09-07T12:29:35.415Z,991.8
2018-09-07T12:30:36.093Z,991.8
2018-09-07T12:31:36.777Z,991.8
2018-09-07T12:32:37.498Z,991.8
2018-09-07T12:33:38.189Z,991.8
2018-09-07T12:34:38.928Z,991.7
2018-09-07T12:35:39.557Z,991.7
2018-09-07T12:36:40.268Z,991.7
2018-09-07T12:37:40.969Z,991.7
2018-09-07T12:38:41.693Z,991.7
2018-09-07T12:39:42.380Z,991.6
2018-09-07T12:40:43.065Z,991.7
2018-09-07T12:41:43.749Z,991.7
2018-09-07T12:42:44.477Z,991.6
2018-09-07T12:43:45.163Z,991.7
2018-09-07T12:44:45.846Z,991.7
2018-09-07T12:45:46.531Z,991.6
2018-09-07T12:46:47.262Z,991.6
2018-09-07T12:47:47.991Z,991.6
2018-09-07T12:48:48.675Z,991.6
2018-09-07T12:49:49.402Z,991.6
2018-09-07T12:50:50.090Z,991.6
2018-09-07T12:51:50.773Z,991.7
2018-09-07T12:52:51.502Z,991.7
2018-09-07T12:53:52.195Z,991.7
2018-09-07T12:54:52.889Z,991.7
2018-09-07T12:55:53.580Z,991.7
2018-09-07T12:56:54.273Z,991.7
2018-09-07T12:57:54.970Z,991.8
2018-09-07T12:58:55.712Z,991.7
2018-09-07T12:59:56.407Z,991.7
2018-09-07T13:00:57.100Z,991.7